sensor_id;sensor_type;location;lat;lon;timestamp;P1;durP1;ratioP1;P2;durP2;ratioP2
43670;SDS011;29267;50.906;7.248;2023-07-24T00:01:02;4.68;;;3.22;;
43670;SDS011;29267;50.906;7.248;2023-07-24T00:03:28;4.22;;;2.97;;
43670;SDS011;29267;50.906;7.248;2023-07-24T00:05:53;5.85;;;3.22;;
43670;SDS011;29267;50.906;7.248;2023-07-24T00:08:23;3.88;;;3.10;;
43670;SDS011;29267;50.906;7.248;2023-07-24T00:10:49;3.80;;;2.95;;
43670;SDS011;29267;50.906;7.248;2023-07-24T00:13:14;4.90;;;2.90;;
43670;SDS011;29267;50.906;7.248;2023-07-24T00:15:40;4.30;;;2.97;;
43670;SDS011;29267;50.906;7.248;2023-07-24T00:18:06;9.13;;;4.07;;
43670;SDS011;29267;50.906;7.248;2023-07-24T00:20:31;5.03;;;3.35;;
43670;SDS011;29267;50.906;7.248;2023-07-24T00:22:57;6.13;;;3.20;;
43670;SDS011;29267;50.906;7.248;2023-07-24T00:25:22;4.13;;;3.08;;
43670;SDS011;29267;50.906;7.248;2023-07-24T00:27:48;4.88;;;2.80;;
43670;SDS011;29267;50.906;7.248;2023-07-24T00:30:13;4.63;;;3.30;;
43670;SDS011;29267;50.906;7.248;2023-07-24T00:32:39;3.38;;;2.67;;
43670;SDS011;29267;50.906;7.248;2023-07-24T00:35:05;7.22;;;3.33;;
43670;SDS011;29267;50.906;7.248;2023-07-24T00:37:31;4.72;;;2.90;;
43670;SDS011;29267;50.906;7.248;2023-07-24T00:39:56;3.92;;;2.90;;
43670;SDS011;29267;50.906;7.248;2023-07-24T00:42:22;7.00;;;2.90;;
43670;SDS011;29267;50.906;7.248;2023-07-24T00:44:47;6.22;;;2.92;;
43670;SDS011;29267;50.906;7.248;2023-07-24T00:47:13;4.40;;;2.97;;
43670;SDS011;29267;50.906;7.248;2023-07-24T00:49:39;4.50;;;2.83;;
43670;SDS011;29267;50.906;7.248;2023-07-24T00:52:05;4.25;;;2.80;;
43670;SDS011;29267;50.906;7.248;2023-07-24T00:54:32;7.47;;;3.30;;
43670;SDS011;29267;50.906;7.248;2023-07-24T00:56:58;9.93;;;3.45;;
43670;SDS011;29267;50.906;7.248;2023-07-24T00:59:25;4.32;;;3.30;;
43670;SDS011;29267;50.906;7.248;2023-07-24T01:01:51;7.93;;;3.40;;
43670;SDS011;29267;50.906;7.248;2023-07-24T01:04:16;7.68;;;2.55;;
43670;SDS011;29267;50.906;7.248;2023-07-24T01:06:43;7.90;;;3.10;;
43670;SDS011;29267;50.906;7.248;2023-07-24T01:09:08;3.60;;;2.63;;
43670;SDS011;29267;50.906;7.248;2023-07-24T01:11:36;6.78;;;2.67;;
43670;SDS011;29267;50.906;7.248;2023-07-24T01:16:52;5.80;;;3.00;;
43670;SDS011;29267;50.906;7.248;2023-07-24T01:19:29;7.10;;;3.35;;
43670;SDS011;29267;50.906;7.248;2023-07-24T01:22:05;4.97;;;2.80;;
43670;SDS011;29267;50.906;7.248;2023-07-24T01:24:52;6.38;;;3.35;;
43670;SDS011;29267;50.906;7.248;2023-07-24T01:27:24;6.72;;;3.15;;
43670;SDS011;29267;50.906;7.248;2023-07-24T01:29:50;5.30;;;3.03;;
43670;SDS011;29267;50.906;7.248;2023-07-24T01:32:16;3.35;;;2.80;;
43670;SDS011;29267;50.906;7.248;2023-07-24T01:34:42;3.70;;;2.58;;
43670;SDS011;29267;50.906;7.248;2023-07-24T01:37:07;5.20;;;3.13;;
43670;SDS011;29267;50.906;7.248;2023-07-24T01:39:35;6.45;;;3.33;;
43670;SDS011;29267;50.906;7.248;2023-07-24T01:42:02;7.03;;;2.85;;
43670;SDS011;29267;50.906;7.248;2023-07-24T01:44:28;9.10;;;2.95;;
43670;SDS011;29267;50.906;7.248;2023-07-24T01:46:53;5.05;;;3.13;;
43670;SDS011;29267;50.906;7.248;2023-07-24T01:49:19;6.00;;;3.63;;
43670;SDS011;29267;50.906;7.248;2023-07-24T01:51:44;4.20;;;2.63;;
43670;SDS011;29267;50.906;7.248;2023-07-24T01:54:10;4.20;;;2.85;;
43670;SDS011;29267;50.906;7.248;2023-07-24T01:56:35;5.22;;;3.70;;
43670;SDS011;29267;50.906;7.248;2023-07-24T01:59:02;5.70;;;3.80;;
43670;SDS011;29267;50.906;7.248;2023-07-24T02:01:28;5.25;;;2.85;;
43670;SDS011;29267;50.906;7.248;2023-07-24T02:03:53;4.90;;;3.17;;
43670;SDS011;29267;50.906;7.248;2023-07-24T02:06:19;5.25;;;3.45;;
43670;SDS011;29267;50.906;7.248;2023-07-24T02:08:44;4.32;;;3.28;;
43670;SDS011;29267;50.906;7.248;2023-07-24T02:11:14;9.40;;;3.03;;
43670;SDS011;29267;50.906;7.248;2023-07-24T02:13:43;5.22;;;3.50;;
43670;SDS011;29267;50.906;7.248;2023-07-24T02:16:09;5.75;;;3.28;;
43670;SDS011;29267;50.906;7.248;2023-07-24T02:18:36;7.57;;;3.33;;
43670;SDS011;29267;50.906;7.248;2023-07-24T02:21:02;8.60;;;3.67;;
43670;SDS011;29267;50.906;7.248;2023-07-24T02:23:27;8.82;;;3.40;;
43670;SDS011;29267;50.906;7.248;2023-07-24T02:25:53;7.10;;;3.05;;
43670;SDS011;29267;50.906;7.248;2023-07-24T02:28:18;9.35;;;3.90;;
43670;SDS011;29267;50.906;7.248;2023-07-24T02:30:46;6.07;;;2.97;;
43670;SDS011;29267;50.906;7.248;2023-07-24T02:33:12;7.07;;;3.72;;
43670;SDS011;29267;50.906;7.248;2023-07-24T02:35:41;5.07;;;3.35;;
43670;SDS011;29267;50.906;7.248;2023-07-24T02:38:07;6.38;;;3.03;;
43670;SDS011;29267;50.906;7.248;2023-07-24T02:40:33;5.80;;;3.30;;
43670;SDS011;29267;50.906;7.248;2023-07-24T02:43:00;4.63;;;3.17;;
43670;SDS011;29267;50.906;7.248;2023-07-24T02:45:25;5.80;;;3.65;;
43670;SDS011;29267;50.906;7.248;2023-07-24T02:47:51;5.32;;;4.25;;
43670;SDS011;29267;50.906;7.248;2023-07-24T02:50:16;7.15;;;3.47;;
43670;SDS011;29267;50.906;7.248;2023-07-24T02:52:42;4.88;;;3.50;;
43670;SDS011;29267;50.906;7.248;2023-07-24T02:55:08;5.00;;;2.97;;
43670;SDS011;29267;50.906;7.248;2023-07-24T02:57:33;5.38;;;3.25;;
43670;SDS011;29267;50.906;7.248;2023-07-24T02:59:59;6.82;;;3.58;;
43670;SDS011;29267;50.906;7.248;2023-07-24T03:02:24;5.75;;;3.13;;
43670;SDS011;29267;50.906;7.248;2023-07-24T03:04:50;4.63;;;3.50;;
43670;SDS011;29267;50.906;7.248;2023-07-24T03:07:16;6.25;;;3.20;;
43670;SDS011;29267;50.906;7.248;2023-07-24T03:09:41;5.07;;;3.13;;
43670;SDS011;29267;50.906;7.248;2023-07-24T03:12:07;12.30;;;4.20;;
43670;SDS011;29267;50.906;7.248;2023-07-24T03:14:32;7.50;;;3.78;;
43670;SDS011;29267;50.906;7.248;2023-07-24T03:16:58;3.95;;;3.10;;
43670;SDS011;29267;50.906;7.248;2023-07-24T03:19:24;7.03;;;3.60;;
43670;SDS011;29267;50.906;7.248;2023-07-24T03:21:50;6.32;;;3.25;;
43670;SDS011;29267;50.906;7.248;2023-07-24T03:24:16;7.18;;;3.58;;
43670;SDS011;29267;50.906;7.248;2023-07-24T03:26:41;4.38;;;2.88;;
43670;SDS011;29267;50.906;7.248;2023-07-24T03:29:07;3.97;;;3.22;;
43670;SDS011;29267;50.906;7.248;2023-07-24T03:31:32;7.35;;;3.47;;
43670;SDS011;29267;50.906;7.248;2023-07-24T03:33:58;4.90;;;3.28;;
43670;SDS011;29267;50.906;7.248;2023-07-24T03:36:24;4.80;;;3.05;;
43670;SDS011;29267;50.906;7.248;2023-07-24T03:38:49;10.15;;;4.63;;
43670;SDS011;29267;50.906;7.248;2023-07-24T03:41:15;8.65;;;3.45;;
43670;SDS011;29267;50.906;7.248;2023-07-24T03:43:41;14.27;;;3.38;;
43670;SDS011;29267;50.906;7.248;2023-07-24T03:46:06;5.50;;;2.95;;
43670;SDS011;29267;50.906;7.248;2023-07-24T03:48:32;6.03;;;4.07;;
43670;SDS011;29267;50.906;7.248;2023-07-24T03:50:58;14.85;;;4.30;;
43670;SDS011;29267;50.906;7.248;2023-07-24T03:53:25;5.05;;;3.00;;
43670;SDS011;29267;50.906;7.248;2023-07-24T03:55:50;9.43;;;3.72;;
43670;SDS011;29267;50.906;7.248;2023-07-24T03:58:16;6.10;;;3.70;;
43670;SDS011;29267;50.906;7.248;2023-07-24T04:00:41;6.53;;;3.90;;
43670;SDS011;29267;50.906;7.248;2023-07-24T04:03:07;7.50;;;3.60;;
43670;SDS011;29267;50.906;7.248;2023-07-24T04:05:33;7.50;;;4.07;;
43670;SDS011;29267;50.906;7.248;2023-07-24T04:07:59;9.25;;;3.63;;
43670;SDS011;29267;50.906;7.248;2023-07-24T04:10:25;9.18;;;4.03;;
43670;SDS011;29267;50.906;7.248;2023-07-24T04:12:51;6.95;;;3.60;;
43670;SDS011;29267;50.906;7.248;2023-07-24T04:15:17;6.88;;;3.50;;
43670;SDS011;29267;50.906;7.248;2023-07-24T04:17:42;7.40;;;3.63;;
43670;SDS011;29267;50.906;7.248;2023-07-24T04:20:08;7.40;;;4.07;;
43670;SDS011;29267;50.906;7.248;2023-07-24T04:22:34;5.60;;;3.80;;
43670;SDS011;29267;50.906;7.248;2023-07-24T04:25:00;6.30;;;3.72;;
43670;SDS011;29267;50.906;7.248;2023-07-24T04:27:25;11.88;;;4.10;;
43670;SDS011;29267;50.906;7.248;2023-07-24T04:29:51;10.80;;;4.25;;
43670;SDS011;29267;50.906;7.248;2023-07-24T04:32:16;6.88;;;4.00;;
43670;SDS011;29267;50.906;7.248;2023-07-24T04:34:42;8.40;;;4.20;;
43670;SDS011;29267;50.906;7.248;2023-07-24T04:37:07;6.35;;;3.63;;
43670;SDS011;29267;50.906;7.248;2023-07-24T04:39:33;5.43;;;3.50;;
43670;SDS011;29267;50.906;7.248;2023-07-24T04:41:59;15.38;;;3.72;;
43670;SDS011;29267;50.906;7.248;2023-07-24T04:44:25;9.55;;;3.30;;
43670;SDS011;29267;50.906;7.248;2023-07-24T04:46:50;10.40;;;4.30;;
43670;SDS011;29267;50.906;7.248;2023-07-24T04:49:16;5.65;;;3.47;;
43670;SDS011;29267;50.906;7.248;2023-07-24T04:51:41;6.32;;;3.60;;
43670;SDS011;29267;50.906;7.248;2023-07-24T04:54:07;7.65;;;4.20;;
43670;SDS011;29267;50.906;7.248;2023-07-24T04:56:32;4.97;;;3.35;;
43670;SDS011;29267;50.906;7.248;2023-07-24T04:58:58;6.78;;;4.00;;
43670;SDS011;29267;50.906;7.248;2023-07-24T05:01:24;11.55;;;3.55;;
43670;SDS011;29267;50.906;7.248;2023-07-24T05:03:49;6.13;;;3.75;;
43670;SDS011;29267;50.906;7.248;2023-07-24T05:06:15;7.55;;;3.47;;
43670;SDS011;29267;50.906;7.248;2023-07-24T05:08:40;5.88;;;3.75;;
43670;SDS011;29267;50.906;7.248;2023-07-24T05:11:06;7.63;;;3.60;;
43670;SDS011;29267;50.906;7.248;2023-07-24T05:13:31;7.22;;;3.80;;
43670;SDS011;29267;50.906;7.248;2023-07-24T05:15:57;6.97;;;3.95;;
43670;SDS011;29267;50.906;7.248;2023-07-24T05:18:22;7.03;;;3.63;;
43670;SDS011;29267;50.906;7.248;2023-07-24T05:20:48;8.43;;;3.65;;
43670;SDS011;29267;50.906;7.248;2023-07-24T05:23:16;5.30;;;3.38;;
43670;SDS011;29267;50.906;7.248;2023-07-24T05:25:42;6.65;;;2.95;;
43670;SDS011;29267;50.906;7.248;2023-07-24T05:28:07;8.07;;;3.58;;
43670;SDS011;29267;50.906;7.248;2023-07-24T05:30:33;5.97;;;3.20;;
43670;SDS011;29267;50.906;7.248;2023-07-24T05:32:59;4.90;;;2.90;;
43670;SDS011;29267;50.906;7.248;2023-07-24T05:35:25;8.27;;;3.15;;
43670;SDS011;29267;50.906;7.248;2023-07-24T05:37:50;5.80;;;3.15;;
43670;SDS011;29267;50.906;7.248;2023-07-24T05:40:16;4.85;;;2.70;;
43670;SDS011;29267;50.906;7.248;2023-07-24T05:42:42;6.75;;;3.42;;
43670;SDS011;29267;50.906;7.248;2023-07-24T05:45:08;9.18;;;3.25;;
43670;SDS011;29267;50.906;7.248;2023-07-24T05:47:36;7.50;;;4.00;;
43670;SDS011;29267;50.906;7.248;2023-07-24T05:50:02;5.90;;;2.90;;
43670;SDS011;29267;50.906;7.248;2023-07-24T05:52:28;5.47;;;2.95;;
43670;SDS011;29267;50.906;7.248;2023-07-24T05:54:54;4.47;;;2.90;;
43670;SDS011;29267;50.906;7.248;2023-07-24T05:57:19;5.97;;;3.08;;
43670;SDS011;29267;50.906;7.248;2023-07-24T05:59:45;7.60;;;3.17;;
43670;SDS011;29267;50.906;7.248;2023-07-24T06:02:10;5.85;;;3.28;;
43670;SDS011;29267;50.906;7.248;2023-07-24T06:04:36;5.00;;;2.58;;
43670;SDS011;29267;50.906;7.248;2023-07-24T06:07:02;5.32;;;2.70;;
43670;SDS011;29267;50.906;7.248;2023-07-24T06:09:27;4.18;;;3.17;;
43670;SDS011;29267;50.906;7.248;2023-07-24T06:11:53;5.30;;;2.55;;
43670;SDS011;29267;50.906;7.248;2023-07-24T06:14:18;4.55;;;2.90;;
43670;SDS011;29267;50.906;7.248;2023-07-24T06:16:44;7.03;;;2.97;;
43670;SDS011;29267;50.906;7.248;2023-07-24T06:19:10;4.93;;;2.90;;
43670;SDS011;29267;50.906;7.248;2023-07-24T06:21:35;5.82;;;2.88;;
43670;SDS011;29267;50.906;7.248;2023-07-24T06:24:01;7.85;;;4.40;;
43670;SDS011;29267;50.906;7.248;2023-07-24T06:26:27;10.07;;;3.28;;
43670;SDS011;29267;50.906;7.248;2023-07-24T06:28:52;4.80;;;2.83;;
43670;SDS011;29267;50.906;7.248;2023-07-24T06:31:18;7.32;;;3.17;;
43670;SDS011;29267;50.906;7.248;2023-07-24T06:33:44;4.15;;;2.72;;
43670;SDS011;29267;50.906;7.248;2023-07-24T06:36:10;5.07;;;3.13;;
43670;SDS011;29267;50.906;7.248;2023-07-24T06:38:36;4.80;;;2.78;;
43670;SDS011;29267;50.906;7.248;2023-07-24T06:41:01;4.40;;;2.35;;
43670;SDS011;29267;50.906;7.248;2023-07-24T06:43:28;6.68;;;2.75;;
43670;SDS011;29267;50.906;7.248;2023-07-24T06:45:53;7.32;;;2.97;;
43670;SDS011;29267;50.906;7.248;2023-07-24T06:48:19;4.78;;;2.78;;
43670;SDS011;29267;50.906;7.248;2023-07-24T06:50:45;4.43;;;2.88;;
43670;SDS011;29267;50.906;7.248;2023-07-24T06:53:10;4.07;;;2.75;;
43670;SDS011;29267;50.906;7.248;2023-07-24T06:55:36;4.13;;;2.70;;
43670;SDS011;29267;50.906;7.248;2023-07-24T06:58:02;4.32;;;2.67;;
43670;SDS011;29267;50.906;7.248;2023-07-24T07:00:27;6.43;;;2.72;;
43670;SDS011;29267;50.906;7.248;2023-07-24T07:02:53;5.40;;;3.35;;
43670;SDS011;29267;50.906;7.248;2023-07-24T07:05:18;5.55;;;3.28;;
43670;SDS011;29267;50.906;7.248;2023-07-24T07:07:44;5.00;;;3.30;;
43670;SDS011;29267;50.906;7.248;2023-07-24T07:10:10;4.85;;;2.92;;
43670;SDS011;29267;50.906;7.248;2023-07-24T07:12:35;5.85;;;3.22;;
43670;SDS011;29267;50.906;7.248;2023-07-24T07:15:01;8.02;;;3.28;;
43670;SDS011;29267;50.906;7.248;2023-07-24T07:17:27;6.30;;;2.70;;
43670;SDS011;29267;50.906;7.248;2023-07-24T07:19:52;6.30;;;3.40;;
43670;SDS011;29267;50.906;7.248;2023-07-24T07:22:18;6.53;;;2.72;;
43670;SDS011;29267;50.906;7.248;2023-07-24T07:24:43;6.28;;;2.78;;
43670;SDS011;29267;50.906;7.248;2023-07-24T07:27:11;6.53;;;3.25;;
43670;SDS011;29267;50.906;7.248;2023-07-24T07:29:36;5.82;;;2.80;;
43670;SDS011;29267;50.906;7.248;2023-07-24T07:32:02;4.70;;;3.10;;
43670;SDS011;29267;50.906;7.248;2023-07-24T07:34:28;4.15;;;2.33;;
43670;SDS011;29267;50.906;7.248;2023-07-24T07:36:53;3.75;;;2.65;;
43670;SDS011;29267;50.906;7.248;2023-07-24T07:39:19;6.22;;;2.60;;
43670;SDS011;29267;50.906;7.248;2023-07-24T07:41:45;5.45;;;3.00;;
43670;SDS011;29267;50.906;7.248;2023-07-24T07:44:10;6.20;;;2.50;;
43670;SDS011;29267;50.906;7.248;2023-07-24T07:46:36;5.40;;;2.72;;
43670;SDS011;29267;50.906;7.248;2023-07-24T07:49:01;3.75;;;2.50;;
43670;SDS011;29267;50.906;7.248;2023-07-24T07:51:27;5.70;;;3.20;;
43670;SDS011;29267;50.906;7.248;2023-07-24T07:53:52;6.80;;;2.50;;
43670;SDS011;29267;50.906;7.248;2023-07-24T07:56:18;4.13;;;2.53;;
43670;SDS011;29267;50.906;7.248;2023-07-24T07:58:43;5.72;;;2.33;;
43670;SDS011;29267;50.906;7.248;2023-07-24T08:01:09;5.15;;;2.40;;
43670;SDS011;29267;50.906;7.248;2023-07-24T08:03:34;3.63;;;2.33;;
43670;SDS011;29267;50.906;7.248;2023-07-24T08:06:00;4.80;;;2.75;;
43670;SDS011;29267;50.906;7.248;2023-07-24T08:08:26;4.20;;;2.20;;
43670;SDS011;29267;50.906;7.248;2023-07-24T08:10:51;5.20;;;2.83;;
43670;SDS011;29267;50.906;7.248;2023-07-24T08:13:17;3.53;;;2.17;;
43670;SDS011;29267;50.906;7.248;2023-07-24T08:15:43;4.10;;;2.70;;
43670;SDS011;29267;50.906;7.248;2023-07-24T08:18:08;6.65;;;2.40;;
43670;SDS011;29267;50.906;7.248;2023-07-24T08:20:37;4.13;;;2.08;;
43670;SDS011;29267;50.906;7.248;2023-07-24T08:23:03;5.55;;;2.60;;
43670;SDS011;29267;50.906;7.248;2023-07-24T08:25:29;5.07;;;2.60;;
43670;SDS011;29267;50.906;7.248;2023-07-24T08:27:55;6.43;;;2.63;;
43670;SDS011;29267;50.906;7.248;2023-07-24T08:30:20;4.65;;;2.33;;
43670;SDS011;29267;50.906;7.248;2023-07-24T08:32:46;4.30;;;2.88;;
43670;SDS011;29267;50.906;7.248;2023-07-24T08:35:12;3.55;;;2.30;;
43670;SDS011;29267;50.906;7.248;2023-07-24T08:37:42;4.28;;;2.80;;
43670;SDS011;29267;50.906;7.248;2023-07-24T08:40:09;3.60;;;2.45;;
43670;SDS011;29267;50.906;7.248;2023-07-24T08:42:37;4.03;;;2.70;;
43670;SDS011;29267;50.906;7.248;2023-07-24T08:45:07;4.68;;;2.50;;
43670;SDS011;29267;50.906;7.248;2023-07-24T08:47:36;6.78;;;2.50;;
43670;SDS011;29267;50.906;7.248;2023-07-24T08:50:06;4.80;;;2.70;;
43670;SDS011;29267;50.906;7.248;2023-07-24T08:52:34;6.88;;;3.13;;
43670;SDS011;29267;50.906;7.248;2023-07-24T08:55:00;8.73;;;3.10;;
43670;SDS011;29267;50.906;7.248;2023-07-24T08:57:27;6.07;;;2.40;;
43670;SDS011;29267;50.906;7.248;2023-07-24T08:59:53;7.03;;;2.40;;
43670;SDS011;29267;50.906;7.248;2023-07-24T09:02:19;9.30;;;2.65;;
43670;SDS011;29267;50.906;7.248;2023-07-24T09:04:44;3.58;;;2.42;;
43670;SDS011;29267;50.906;7.248;2023-07-24T09:07:10;6.07;;;2.22;;
43670;SDS011;29267;50.906;7.248;2023-07-24T09:09:36;3.72;;;2.70;;
43670;SDS011;29267;50.906;7.248;2023-07-24T09:12:02;2.78;;;2.10;;
43670;SDS011;29267;50.906;7.248;2023-07-24T09:14:28;4.63;;;2.15;;
43670;SDS011;29267;50.906;7.248;2023-07-24T09:17:06;3.97;;;2.65;;
43670;SDS011;29267;50.906;7.248;2023-07-24T09:19:33;3.88;;;2.30;;
43670;SDS011;29267;50.906;7.248;2023-07-24T09:24:48;4.18;;;2.30;;
43670;SDS011;29267;50.906;7.248;2023-07-24T09:27:17;5.20;;;2.30;;
43670;SDS011;29267;50.906;7.248;2023-07-24T09:29:43;2.97;;;1.90;;
43670;SDS011;29267;50.906;7.248;2023-07-24T09:32:18;4.07;;;2.60;;
43670;SDS011;29267;50.906;7.248;2023-07-24T09:34:45;3.25;;;2.33;;
43670;SDS011;29267;50.906;7.248;2023-07-24T09:37:10;4.13;;;2.47;;
43670;SDS011;29267;50.906;7.248;2023-07-24T09:39:36;5.88;;;2.60;;
43670;SDS011;29267;50.906;7.248;2023-07-24T09:42:05;4.63;;;2.33;;
43670;SDS011;29267;50.906;7.248;2023-07-24T09:44:31;4.20;;;2.33;;
43670;SDS011;29267;50.906;7.248;2023-07-24T09:46:57;6.32;;;2.13;;
43670;SDS011;29267;50.906;7.248;2023-07-24T09:49:23;5.22;;;2.85;;
43670;SDS011;29267;50.906;7.248;2023-07-24T09:51:49;3.30;;;2.20;;
43670;SDS011;29267;50.906;7.248;2023-07-24T09:54:22;3.22;;;2.47;;
43670;SDS011;29267;50.906;7.248;2023-07-24T09:56:53;4.50;;;2.60;;
43670;SDS011;29267;50.906;7.248;2023-07-24T09:59:20;3.90;;;2.38;;
43670;SDS011;29267;50.906;7.248;2023-07-24T10:01:47;4.68;;;2.20;;
43670;SDS011;29267;50.906;7.248;2023-07-24T10:04:13;4.43;;;2.45;;
43670;SDS011;29267;50.906;7.248;2023-07-24T10:06:41;4.65;;;2.08;;
43670;SDS011;29267;50.906;7.248;2023-07-24T10:09:08;3.38;;;2.00;;
43670;SDS011;29267;50.906;7.248;2023-07-24T10:11:34;3.92;;;2.60;;
43670;SDS011;29267;50.906;7.248;2023-07-24T10:14:00;3.60;;;2.30;;
43670;SDS011;29267;50.906;7.248;2023-07-24T10:16:26;5.38;;;2.45;;
43670;SDS011;29267;50.906;7.248;2023-07-24T10:18:52;4.60;;;2.47;;
43670;SDS011;29267;50.906;7.248;2023-07-24T10:21:17;3.67;;;2.30;;
43670;SDS011;29267;50.906;7.248;2023-07-24T10:23:50;3.67;;;2.30;;
43670;SDS011;29267;50.906;7.248;2023-07-24T10:26:16;4.53;;;2.03;;
43670;SDS011;29267;50.906;7.248;2023-07-24T10:28:49;3.75;;;2.03;;
43670;SDS011;29267;50.906;7.248;2023-07-24T10:31:20;2.97;;;2.05;;
43670;SDS011;29267;50.906;7.248;2023-07-24T10:33:51;4.40;;;1.90;;
43670;SDS011;29267;50.906;7.248;2023-07-24T10:36:20;3.33;;;2.05;;
43670;SDS011;29267;50.906;7.248;2023-07-24T10:38:51;3.55;;;2.20;;
43670;SDS011;29267;50.906;7.248;2023-07-24T10:41:18;2.90;;;1.95;;
43670;SDS011;29267;50.906;7.248;2023-07-24T10:43:47;3.92;;;2.13;;
43670;SDS011;29267;50.906;7.248;2023-07-24T10:46:15;3.00;;;2.03;;
43670;SDS011;29267;50.906;7.248;2023-07-24T10:48:45;4.00;;;2.17;;
43670;SDS011;29267;50.906;7.248;2023-07-24T10:51:15;5.30;;;2.70;;
43670;SDS011;29267;50.906;7.248;2023-07-24T10:53:45;2.63;;;1.85;;
43670;SDS011;29267;50.906;7.248;2023-07-24T10:56:12;4.28;;;2.63;;
43670;SDS011;29267;50.906;7.248;2023-07-24T10:58:38;5.15;;;2.65;;
43670;SDS011;29267;50.906;7.248;2023-07-24T11:01:04;3.72;;;2.53;;
43670;SDS011;29267;50.906;7.248;2023-07-24T11:03:31;3.53;;;2.00;;
43670;SDS011;29267;50.906;7.248;2023-07-24T11:05:57;4.50;;;2.10;;
43670;SDS011;29267;50.906;7.248;2023-07-24T11:08:23;2.88;;;1.60;;
43670;SDS011;29267;50.906;7.248;2023-07-24T11:10:50;3.10;;;2.08;;
43670;SDS011;29267;50.906;7.248;2023-07-24T11:13:18;5.03;;;2.17;;
43670;SDS011;29267;50.906;7.248;2023-07-24T11:15:45;2.65;;;1.73;;
43670;SDS011;29267;50.906;7.248;2023-07-24T11:18:13;2.45;;;1.83;;
43670;SDS011;29267;50.906;7.248;2023-07-24T11:20:46;2.60;;;1.80;;
43670;SDS011;29267;50.906;7.248;2023-07-24T11:23:19;2.45;;;1.85;;
43670;SDS011;29267;50.906;7.248;2023-07-24T11:25:45;3.13;;;2.15;;
43670;SDS011;29267;50.906;7.248;2023-07-24T11:28:13;2.75;;;1.90;;
43670;SDS011;29267;50.906;7.248;2023-07-24T11:30:39;3.97;;;2.22;;
43670;SDS011;29267;50.906;7.248;2023-07-24T11:33:06;2.90;;;1.90;;
43670;SDS011;29267;50.906;7.248;2023-07-24T11:35:34;3.10;;;2.08;;
43670;SDS011;29267;50.906;7.248;2023-07-24T11:38:00;2.92;;;2.00;;
43670;SDS011;29267;50.906;7.248;2023-07-24T11:40:32;4.93;;;2.38;;
43670;SDS011;29267;50.906;7.248;2023-07-24T11:43:05;6.13;;;3.70;;
43670;SDS011;29267;50.906;7.248;2023-07-24T11:45:43;7.20;;;2.55;;
43670;SDS011;29267;50.906;7.248;2023-07-24T11:48:10;4.82;;;1.77;;
43670;SDS011;29267;50.906;7.248;2023-07-24T11:51:12;3.45;;;2.15;;
43670;SDS011;29267;50.906;7.248;2023-07-24T11:53:29;4.38;;;2.42;;
43670;SDS011;29267;50.906;7.248;2023-07-24T11:55:57;5.50;;;2.17;;
43670;SDS011;29267;50.906;7.248;2023-07-24T11:58:27;2.90;;;1.98;;
43670;SDS011;29267;50.906;7.248;2023-07-24T12:00:54;5.03;;;2.45;;
43670;SDS011;29267;50.906;7.248;2023-07-24T12:03:29;4.63;;;2.20;;
43670;SDS011;29267;50.906;7.248;2023-07-24T12:05:55;2.75;;;1.63;;
43670;SDS011;29267;50.906;7.248;2023-07-24T12:08:23;2.60;;;1.70;;
43670;SDS011;29267;50.906;7.248;2023-07-24T12:10:55;3.80;;;2.20;;
43670;SDS011;29267;50.906;7.248;2023-07-24T12:13:21;5.88;;;2.45;;
43670;SDS011;29267;50.906;7.248;2023-07-24T12:15:47;3.40;;;2.38;;
43670;SDS011;29267;50.906;7.248;2023-07-24T12:18:13;3.78;;;1.20;;
43670;SDS011;29267;50.906;7.248;2023-07-24T12:20:39;1.70;;;1.13;;
43670;SDS011;29267;50.906;7.248;2023-07-24T12:23:05;3.08;;;1.00;;
43670;SDS011;29267;50.906;7.248;2023-07-24T12:25:31;2.33;;;0.88;;
43670;SDS011;29267;50.906;7.248;2023-07-24T12:27:56;2.97;;;1.00;;
43670;SDS011;29267;50.906;7.248;2023-07-24T12:30:22;1.98;;;1.08;;
43670;SDS011;29267;50.906;7.248;2023-07-24T12:32:48;2.05;;;1.15;;
43670;SDS011;29267;50.906;7.248;2023-07-24T12:35:15;6.00;;;1.20;;
43670;SDS011;29267;50.906;7.248;2023-07-24T12:37:41;2.75;;;1.13;;
43670;SDS011;29267;50.906;7.248;2023-07-24T12:40:07;3.25;;;1.40;;
43670;SDS011;29267;50.906;7.248;2023-07-24T12:42:34;1.98;;;1.10;;
43670;SDS011;29267;50.906;7.248;2023-07-24T12:44:59;3.25;;;1.70;;
43670;SDS011;29267;50.906;7.248;2023-07-24T12:47:27;2.97;;;1.67;;
43670;SDS011;29267;50.906;7.248;2023-07-24T12:49:53;7.70;;;1.70;;
43670;SDS011;29267;50.906;7.248;2023-07-24T12:52:20;4.72;;;1.58;;
43670;SDS011;29267;50.906;7.248;2023-07-24T12:54:46;5.95;;;1.30;;
43670;SDS011;29267;50.906;7.248;2023-07-24T12:57:11;2.53;;;1.38;;
43670;SDS011;29267;50.906;7.248;2023-07-24T12:59:37;2.10;;;1.20;;
43670;SDS011;29267;50.906;7.248;2023-07-24T13:02:03;2.00;;;1.30;;
43670;SDS011;29267;50.906;7.248;2023-07-24T13:04:28;3.78;;;0.80;;
43670;SDS011;29267;50.906;7.248;2023-07-24T13:06:54;2.05;;;1.20;;
43670;SDS011;29267;50.906;7.248;2023-07-24T13:09:19;1.88;;;1.20;;
43670;SDS011;29267;50.906;7.248;2023-07-24T13:11:45;2.85;;;1.67;;
43670;SDS011;29267;50.906;7.248;2023-07-24T13:14:13;2.47;;;1.30;;
43670;SDS011;29267;50.906;7.248;2023-07-24T13:16:39;4.22;;;1.55;;
43670;SDS011;29267;50.906;7.248;2023-07-24T13:19:05;6.47;;;2.28;;
43670;SDS011;29267;50.906;7.248;2023-07-24T13:21:31;2.40;;;1.30;;
43670;SDS011;29267;50.906;7.248;2023-07-24T13:23:56;1.25;;;0.88;;
43670;SDS011;29267;50.906;7.248;2023-07-24T13:26:22;2.15;;;0.90;;
43670;SDS011;29267;50.906;7.248;2023-07-24T13:28:48;1.80;;;0.85;;
43670;SDS011;29267;50.906;7.248;2023-07-24T13:31:14;2.80;;;1.33;;
43670;SDS011;29267;50.906;7.248;2023-07-24T13:33:41;4.47;;;1.20;;
43670;SDS011;29267;50.906;7.248;2023-07-24T13:36:07;3.45;;;1.20;;
43670;SDS011;29267;50.906;7.248;2023-07-24T13:38:33;2.17;;;1.40;;
43670;SDS011;29267;50.906;7.248;2023-07-24T13:40:58;2.75;;;1.45;;
43670;SDS011;29267;50.906;7.248;2023-07-24T13:43:24;2.92;;;1.60;;
43670;SDS011;29267;50.906;7.248;2023-07-24T13:45:50;2.78;;;1.30;;
43670;SDS011;29267;50.906;7.248;2023-07-24T13:48:16;2.00;;;1.50;;
43670;SDS011;29267;50.906;7.248;2023-07-24T13:50:41;3.42;;;1.60;;
43670;SDS011;29267;50.906;7.248;2023-07-24T13:53:07;2.95;;;1.65;;
43670;SDS011;29267;50.906;7.248;2023-07-24T13:55:33;4.82;;;1.58;;
43670;SDS011;29267;50.906;7.248;2023-07-24T13:57:58;2.17;;;1.00;;
43670;SDS011;29267;50.906;7.248;2023-07-24T14:00:24;4.50;;;1.60;;
43670;SDS011;29267;50.906;7.248;2023-07-24T14:02:49;4.65;;;2.05;;
43670;SDS011;29267;50.906;7.248;2023-07-24T14:05:15;3.63;;;1.75;;
43670;SDS011;29267;50.906;7.248;2023-07-24T14:07:41;2.38;;;1.42;;
43670;SDS011;29267;50.906;7.248;2023-07-24T14:10:07;4.38;;;1.73;;
43670;SDS011;29267;50.906;7.248;2023-07-24T14:12:33;2.75;;;1.80;;
43670;SDS011;29267;50.906;7.248;2023-07-24T14:14:59;2.28;;;1.42;;
43670;SDS011;29267;50.906;7.248;2023-07-24T14:17:24;2.50;;;1.80;;
43670;SDS011;29267;50.906;7.248;2023-07-24T14:19:50;3.15;;;1.75;;
43670;SDS011;29267;50.906;7.248;2023-07-24T14:22:16;7.70;;;1.50;;
43670;SDS011;29267;50.906;7.248;2023-07-24T14:24:41;7.45;;;1.60;;
43670;SDS011;29267;50.906;7.248;2023-07-24T14:27:07;6.35;;;1.95;;
43670;SDS011;29267;50.906;7.248;2023-07-24T14:29:32;4.32;;;2.03;;
43670;SDS011;29267;50.906;7.248;2023-07-24T14:31:58;3.33;;;1.70;;
43670;SDS011;29267;50.906;7.248;2023-07-24T14:34:24;3.65;;;2.03;;
43670;SDS011;29267;50.906;7.248;2023-07-24T14:36:49;3.85;;;1.92;;
43670;SDS011;29267;50.906;7.248;2023-07-24T14:39:15;3.70;;;2.08;;
43670;SDS011;29267;50.906;7.248;2023-07-24T14:41:40;5.13;;;1.67;;
43670;SDS011;29267;50.906;7.248;2023-07-24T14:44:06;3.65;;;1.92;;
43670;SDS011;29267;50.906;7.248;2023-07-24T14:46:31;3.03;;;1.83;;
43670;SDS011;29267;50.906;7.248;2023-07-24T14:48:57;2.63;;;2.03;;